Time;durP1;ratioP1;P1;durP2;ratioP2;P2;SDS_P1;SDS_P2;PMS_P1;PMS_P2;Temp;Humidity;BMP_temperature;BMP_pressure;BME280_temperature;BME280_humidity;BME280_pressure;Samples;Min_cycle;Max_cycle;Signal;HPM_P1;HPM_P2
2021/06/22 00:01:58;;;;;;;5.57;1.90;;;;;;;21.87;74.01;95122.69;4984031;28;20208;-84
2021/06/22 00:04:27;;;;;;;3.78;1.80;;;;;;;21.86;74.47;95130.81;4984335;28;20228;-85
2021/06/22 00:06:56;;;;;;;2.35;1.60;;;;;;;21.86;73.12;95128.19;4982542;28;20205;-84
2021/06/22 00:09:30;;;;;;;3.20;1.70;;;;;;;21.89;73.43;95138.19;4984113;28;20574;-85
2021/06/22 00:11:59;;;;;;;2.50;1.30;;;;;;;21.90;72.45;95131.88;4984353;28;20266;-86
2021/06/22 00:14:25;;;;;;;2.22;1.55;;;;;;;21.93;72.48;95132.16;4985545;28;20243;-84
2021/06/22 00:16:52;;;;;;;3.38;1.60;;;;;;;21.87;72.38;95125.31;4983878;28;20215;-85
2021/06/22 00:19:18;;;;;;;6.72;1.98;;;;;;;21.83;72.02;95121.63;4983088;28;20659;-86
2021/06/22 00:21:46;;;;;;;2.72;1.23;;;;;;;21.80;72.16;95119.53;4981672;28;20219;-86
2021/06/22 00:24:13;;;;;;;2.10;1.50;;;;;;;21.85;71.60;95127.41;4983118;28;20210;-83
2021/06/22 00:26:40;;;;;;;3.17;1.65;;;;;;;21.84;71.83;95125.84;4983469;28;20193;-84
2021/06/22 00:29:06;;;;;;;3.00;1.30;;;;;;;21.83;71.76;95126.88;4983008;28;20204;-84
2021/06/22 00:31:33;;;;;;;2.65;1.60;;;;;;;21.79;71.82;95148.59;4982585;28;20208;-83
2021/06/22 00:33:59;;;;;;;2.67;1.75;;;;;;;21.66;73.33;95142.81;4983639;28;20211;-86
2021/06/22 00:36:26;;;;;;;2.00;1.48;;;;;;;21.74;72.34;95146.00;4983040;28;20231;-84
2021/06/22 00:38:54;;;;;;;3.72;1.50;;;;;;;21.76;72.54;95149.13;4982378;28;20212;-85
2021/06/22 00:41:21;;;;;;;2.70;1.50;;;;;;;21.76;72.54;95155.16;4983277;28;20720;-83
2021/06/22 00:43:47;;;;;;;2.90;1.65;;;;;;;21.70;72.09;95151.75;4982996;28;20303;-85
2021/06/22 00:46:14;;;;;;;3.72;1.40;;;;;;;21.67;72.65;95146.22;4983968;28;20227;-84
2021/06/22 00:48:40;;;;;;;4.47;1.77;;;;;;;21.68;72.34;95148.59;4983461;28;20201;-85
2021/06/22 00:51:07;;;;;;;3.03;1.60;;;;;;;21.65;72.83;95143.84;4983526;28;20208;-83
2021/06/22 00:53:35;;;;;;;2.15;1.48;;;;;;;21.67;73.06;95148.84;4983786;28;20200;-83
2021/06/22 00:56:03;;;;;;;1.73;1.35;;;;;;;21.62;73.77;95141.75;4982200;28;20235;-85
2021/06/22 00:58:29;;;;;;;3.15;1.50;;;;;;;21.67;73.56;95140.97;4981358;28;20201;-86
2021/06/22 01:00:56;;;;;;;2.67;1.70;;;;;;;21.63;73.86;95138.06;4980449;28;20200;-85
2021/06/22 01:03:22;;;;;;;2.20;1.50;;;;;;;21.53;74.41;95130.19;4980861;28;20204;-85
2021/06/22 01:05:49;;;;;;;2.90;1.75;;;;;;;21.44;75.22;95130.91;4982019;28;20223;-85
2021/06/22 01:08:16;;;;;;;4.13;1.30;;;;;;;21.47;74.82;95128.59;4981315;28;20224;-84
2021/06/22 01:10:42;;;;;;;2.33;1.60;;;;;;;21.53;74.94;95134.66;4981601;28;20204;-86
2021/06/22 01:13:10;;;;;;;2.72;1.38;;;;;;;21.48;75.07;95130.16;4980588;28;20216;-84
2021/06/22 01:15:37;;;;;;;3.47;1.38;;;;;;;21.47;75.34;95136.44;4980759;28;20225;-84
2021/06/22 01:18:06;;;;;;;3.20;1.58;;;;;;;21.48;74.69;95139.84;4980960;28;20235;-84
2021/06/22 01:20:33;;;;;;;1.52;1.33;;;;;;;21.51;74.23;95131.50;4981299;28;20231;-85
2021/06/22 01:23:03;;;;;;;2.00;1.40;;;;;;;21.51;74.71;95113.16;4981082;28;20657;-86
2021/06/22 01:25:30;;;;;;;2.15;1.48;;;;;;;21.50;74.43;95119.44;4980724;28;20234;-83
2021/06/22 01:27:57;;;;;;;2.35;1.30;;;;;;;21.51;74.18;95119.19;4982039;28;20668;-85
2021/06/22 01:30:24;;;;;;;3.90;1.50;;;;;;;21.52;74.51;95107.66;4982627;28;20519;-84
2021/06/22 01:32:52;;;;;;;1.75;1.20;;;;;;;21.49;74.67;95113.41;4981143;28;20577;-84
2021/06/22 01:35:18;;;;;;;2.45;1.52;;;;;;;21.52;74.36;95119.97;4982771;28;20231;-85
2021/06/22 01:37:53;;;;;;;3.15;1.48;;;;;;;21.46;75.42;95123.59;4978958;28;20200;-84
2021/06/22 01:40:21;;;;;;;2.83;1.40;;;;;;;21.49;75.21;95126.50;4974171;28;20231;-85
2021/06/22 01:42:48;;;;;;;1.88;1.38;;;;;;;21.62;74.24;95128.63;4975190;28;20234;-86
2021/06/22 01:45:15;;;;;;;1.67;1.20;;;;;;;21.73;73.74;95133.94;4975155;28;20220;-84
2021/06/22 01:47:42;;;;;;;2.65;1.50;;;;;;;21.83;73.48;95133.94;4975105;28;20196;-85
2021/06/22 01:50:09;;;;;;;2.33;1.38;;;;;;;21.83;73.02;95131.31;4974492;28;20223;-85
2021/06/22 01:52:36;;;;;;;1.63;1.35;;;;;;;21.89;72.59;95125.84;4973908;28;20211;-85
2021/06/22 01:55:34;;;;;;;2.08;1.38;;;;;;;21.89;73.37;95120.63;4974982;28;20404;-85
2021/06/22 01:57:53;;;;;;;3.47;1.40;;;;;;;21.84;73.60;95120.59;4974947;28;20307;-85
2021/06/22 02:00:20;;;;;;;3.10;1.50;;;;;;;21.87;73.16;95121.91;4975382;28;20246;-86
2021/06/22 02:02:46;;;;;;;2.38;1.48;;;;;;;21.86;73.74;95126.38;4976173;28;20204;-85
2021/06/22 02:05:14;;;;;;;4.10;1.40;;;;;;;21.96;73.16;95122.97;4974555;28;20220;-86
2021/06/22 02:07:41;;;;;;;1.58;1.27;;;;;;;22.04;73.20;95133.78;4975296;28;20291;-85
2021/06/22 02:10:10;;;;;;;1.85;1.20;;;;;;;22.01;72.76;95133.50;4977744;28;20680;-84
2021/06/22 02:12:38;;;;;;;2.58;1.30;;;;;;;22.01;72.55;95123.03;4977525;28;20203;-85
2021/06/22 02:15:10;;;;;;;2.70;1.27;;;;;;;21.98;72.32;95126.13;4972518;28;20223;-86
2021/06/22 02:17:36;;;;;;;5.43;1.60;;;;;;;22.02;71.80;95130.63;4972172;28;20231;-86
2021/06/22 02:20:05;;;;;;;1.95;1.30;;;;;;;22.06;71.75;95133.53;4978165;28;20220;-84
2021/06/22 02:22:34;;;;;;;1.55;1.13;;;;;;;22.06;70.93;95123.03;4978918;28;20207;-86
2021/06/22 02:25:01;;;;;;;1.90;1.30;;;;;;;22.10;70.83;95128.56;4978244;28;20778;-86
2021/06/22 02:27:29;;;;;;;1.55;1.25;;;;;;;21.88;72.23;95120.88;4977646;28;20575;-86
2021/06/22 02:29:56;;;;;;;2.38;1.13;;;;;;;21.83;72.87;95113.78;4976464;28;20204;-86
2021/06/22 02:32:27;;;;;;;3.65;1.38;;;;;;;21.78;72.46;95119.00;4975972;28;20208;-86
2021/06/22 02:34:54;;;;;;;4.13;1.58;;;;;;;21.85;72.48;95121.38;4976902;28;20220;-86
2021/06/22 02:37:20;;;;;;;2.42;1.25;;;;;;;21.82;71.69;95106.16;4977461;28;20235;-86
2021/06/22 02:39:47;;;;;;;2.75;1.40;;;;;;;21.87;71.68;95100.94;4977567;28;20224;-85
2021/06/22 02:42:14;;;;;;;1.52;1.30;;;;;;;21.84;72.19;95093.59;4976937;28;20204;-86
2021/06/22 02:44:41;;;;;;;2.05;1.48;;;;;;;21.95;72.05;95095.19;4978101;28;20748;-87
2021/06/22 02:47:08;;;;;;;2.80;1.40;;;;;;;21.93;72.02;95089.44;4977024;28;20226;-84
2021/06/22 02:49:36;;;;;;;1.60;1.27;;;;;;;21.87;72.40;95093.09;4976151;28;20203;-86
2021/06/22 02:52:05;;;;;;;2.40;1.20;;;;;;;21.88;72.49;95097.28;4975776;28;20208;-84
2021/06/22 02:54:33;;;;;;;1.85;1.15;;;;;;;21.78;73.14;95097.25;4975800;28;20212;-84
2021/06/22 02:56:59;;;;;;;1.83;1.20;;;;;;;21.82;72.46;95093.84;4975754;28;20235;-86
2021/06/22 02:59:26;;;;;;;2.22;1.20;;;;;;;21.85;72.66;95103.81;4975964;28;20224;-85
2021/06/22 03:01:52;;;;;;;1.77;1.30;;;;;;;21.85;71.54;95100.41;4975533;28;20207;-86
2021/06/22 03:04:19;;;;;;;1.40;1.30;;;;;;;21.65;72.78;95101.94;4984946;23;20223;-85
2021/06/22 03:06:46;;;;;;;1.70;1.30;;;;;;;21.60;72.04;95103.75;4996125;28;20208;-85
2021/06/22 03:09:13;;;;;;;2.67;1.45;;;;;;;21.61;73.68;95098.25;4997008;28;20214;-86
2021/06/22 03:11:39;;;;;;;1.63;1.10;;;;;;;21.74;72.22;95104.84;4996333;28;20211;-86
2021/06/22 03:14:06;;;;;;;1.45;1.30;;;;;;;21.78;72.38;95105.88;4995678;28;20203;-86
2021/06/22 03:16:33;;;;;;;1.75;1.30;;;;;;;21.77;71.51;95103.53;4995097;28;20211;-85
2021/06/22 03:18:59;;;;;;;3.13;1.30;;;;;;;21.71;71.83;95105.38;4994905;28;20207;-85
2021/06/22 03:21:26;;;;;;;3.00;1.30;;;;;;;21.70;71.86;95106.41;4994989;28;20230;-86
2021/06/22 03:23:54;;;;;;;2.35;1.30;;;;;;;21.81;71.52;95107.22;4995689;28;20210;-85
2021/06/22 03:26:20;;;;;;;3.35;1.50;;;;;;;21.79;72.43;95109.28;4996395;28;20219;-86
2021/06/22 03:28:47;;;;;;;2.92;1.38;;;;;;;21.87;72.01;95117.47;4996458;28;20694;-85
2021/06/22 03:31:14;;;;;;;2.92;1.40;;;;;;;21.89;72.28;95104.09;4995215;28;20206;-85
2021/06/22 03:33:40;;;;;;;1.95;1.40;;;;;;;21.92;72.55;95091.25;4996167;28;20203;-85
2021/06/22 03:36:07;;;;;;;1.70;1.20;;;;;;;21.80;73.36;95093.31;4996487;28;20771;-85
2021/06/22 03:38:33;;;;;;;1.95;1.17;;;;;;;21.97;73.05;95093.09;4995837;28;20559;-84
2021/06/22 03:41:01;;;;;;;1.77;1.30;;;;;;;22.18;72.67;95092.09;4994707;28;20596;-86
2021/06/22 03:43:28;;;;;;;3.53;1.40;;;;;;;22.26;73.13;95091.59;4995309;28;20204;-85
2021/06/22 03:45:54;;;;;;;4.60;1.25;;;;;;;22.44;72.82;95092.13;4994637;28;20238;-86
2021/06/22 03:48:21;;;;;;;2.20;1.40;;;;;;;22.50;71.79;95096.34;4979412;28;20207;-84
2021/06/22 03:50:48;;;;;;;3.00;1.60;;;;;;;22.40;72.01;95097.09;4975736;28;20200;-87
2021/06/22 03:53:14;;;;;;;2.95;1.45;;;;;;;22.45;71.84;95099.72;4986481;28;20207;-85
2021/06/22 03:55:41;;;;;;;1.25;1.15;;;;;;;22.53;71.22;95095.78;4976754;28;20239;-86
2021/06/22 03:58:09;;;;;;;2.45;1.48;;;;;;;22.52;70.90;95102.06;4987305;28;20200;-87
2021/06/22 04:00:35;;;;;;;6.63;1.60;;;;;;;22.36;71.73;95099.47;4994935;28;20216;-86
2021/06/22 04:03:02;;;;;;;2.60;1.60;;;;;;;22.24;72.50;95098.16;4975984;28;20200;-85
2021/06/22 04:05:30;;;;;;;2.10;1.25;;;;;;;22.07;73.63;95105.47;4978968;28;20219;-87
2021/06/22 04:07:57;;;;;;;1.98;1.50;;;;;;;21.89;73.17;95107.50;4995392;28;20242;-86
2021/06/22 04:10:23;;;;;;;2.47;1.60;;;;;;;21.88;72.82;95105.13;4994436;28;20200;-86
2021/06/22 04:12:50;;;;;;;1.63;1.30;;;;;;;21.99;71.57;95098.88;4994827;28;20215;-85
2021/06/22 04:15:18;;;;;;;2.33;1.25;;;;;;;21.89;72.82;95106.72;4980485;28;20586;-85
2021/06/22 04:17:45;;;;;;;5.38;1.50;;;;;;;22.02;73.04;95111.47;4975489;28;20203;-86
2021/06/22 04:20:13;;;;;;;3.15;1.45;;;;;;;21.91;73.53;95107.25;4973485;28;20231;-85
2021/06/22 04:22:40;;;;;;;2.92;1.50;;;;;;;21.87;72.83;95109.59;4985600;28;20204;-85
2021/06/22 04:25:08;;;;;;;4.38;1.55;;;;;;;21.80;72.96;95110.88;4998295;28;20230;-86
2021/06/22 04:27:35;;;;;;;1.92;1.70;;;;;;;21.89;72.15;95110.13;4999001;28;20218;-86
2021/06/22 04:30:01;;;;;;;3.42;1.45;;;;;;;21.98;70.41;95105.16;4999150;28;20214;-87
2021/06/22 04:32:29;;;;;;;3.33;1.55;;;;;;;22.16;70.67;95111.75;4983702;28;20302;-86
2021/06/22 04:34:55;;;;;;;2.80;1.60;;;;;;;22.23;71.22;95101.81;4978931;28;20223;-86
2021/06/22 04:37:22;;;;;;;1.73;1.52;;;;;;;22.35;71.08;95103.13;4979878;28;20210;-85
2021/06/22 04:39:48;;;;;;;1.88;1.40;;;;;;;22.48;70.38;95101.84;4979000;28;20231;-85
2021/06/22 04:42:15;;;;;;;3.95;1.85;;;;;;;22.46;70.20;95092.66;4979191;28;20204;-87
2021/06/22 04:44:42;;;;;;;3.72;1.63;;;;;;;22.46;70.49;95098.69;4991581;28;20307;-86
2021/06/22 04:47:09;;;;;;;4.10;1.60;;;;;;;22.49;70.64;95092.13;4996417;28;20206;-87
2021/06/22 04:49:36;;;;;;;3.00;1.35;;;;;;;22.56;70.73;95092.63;4988926;28;20200;-87
2021/06/22 04:52:04;;;;;;;2.97;1.77;;;;;;;22.58;71.29;95096.56;4980800;28;20212;-86
2021/06/22 04:54:30;;;;;;;2.10;1.40;;;;;;;22.70;70.87;95101.56;4992932;28;20219;-85
2021/06/22 04:56:57;;;;;;;1.63;1.52;;;;;;;22.60;71.41;95102.34;4994325;28;20246;-86
2021/06/22 04:59:24;;;;;;;1.88;1.40;;;;;;;22.48;71.69;95103.69;4997179;28;20204;-85
2021/06/22 05:01:50;;;;;;;1.77;1.67;;;;;;;22.40;72.54;95097.88;4994390;28;20215;-82
2021/06/22 05:04:17;;;;;;;3.05;1.40;;;;;;;22.39;72.02;95101.56;4997795;28;20695;-85
2021/06/22 05:06:45;;;;;;;2.00;1.70;;;;;;;22.39;72.30;95106.81;4989975;28;20195;-84
2021/06/22 05:09:11;;;;;;;2.38;1.70;;;;;;;22.17;73.60;95106.25;4987744;28;20220;-84
2021/06/22 05:11:38;;;;;;;2.58;1.85;;;;;;;22.11;74.00;95096.84;4976671;28;20211;-85
2021/06/22 05:14:04;;;;;;;2.85;1.80;;;;;;;21.98;75.10;95097.28;4988794;28;20204;-86
2021/06/22 05:16:31;;;;;;;8.68;7.82;;;;;;;21.93;75.25;95100.69;4977886;28;20224;-84
2021/06/22 05:18:57;;;;;;;10.43;9.38;;;;;;;21.85;76.45;95111.69;4976797;28;20215;-85
2021/06/22 05:21:24;;;;;;;4.45;3.72;;;;;;;22.10;75.19;95111.00;4978223;28;20707;-86
2021/06/22 05:23:51;;;;;;;2.25;2.05;;;;;;;22.34;74.52;95100.75;4988385;28;20668;-85
2021/06/22 05:26:18;;;;;;;5.90;2.25;;;;;;;22.52;73.46;95097.63;4994274;28;20223;-87
2021/06/22 05:28:44;;;;;;;3.47;1.60;;;;;;;22.71;72.71;95098.66;4996039;28;20211;-84
2021/06/22 05:31:11;;;;;;;2.92;1.70;;;;;;;22.79;72.56;95097.38;4989067;28;20207;-83
2021/06/22 05:33:38;;;;;;;1.83;1.70;;;;;;;22.78;72.66;95097.63;4995333;28;20207;-85
2021/06/22 05:36:05;;;;;;;3.17;1.92;;;;;;;22.97;72.31;95098.66;4996077;28;20302;-84
2021/06/22 05:38:32;;;;;;;4.55;2.00;;;;;;;23.12;71.43;95096.00;4987702;28;20204;-86
2021/06/22 05:41:00;;;;;;;3.03;2.40;;;;;;;23.27;69.73;95090.72;4993290;28;20239;-86
2021/06/22 05:43:26;;;;;;;4.97;2.13;;;;;;;23.38;69.50;95088.81;4999146;28;20195;-86
2021/06/22 05:45:54;;;;;;;6.45;2.20;;;;;;;23.40;69.88;95087.50;4998857;28;20746;-87
2021/06/22 05:48:21;;;;;;;2.40;1.90;;;;;;;23.48;69.79;95095.88;4987994;28;20207;-86
2021/06/22 05:50:47;;;;;;;3.25;1.80;;;;;;;23.40;69.12;95082.25;4978108;28;20204;-86
2021/06/22 05:53:14;;;;;;;3.55;1.90;;;;;;;23.52;68.52;95096.94;4978196;28;20211;-85
2021/06/22 05:55:40;;;;;;;5.70;2.10;;;;;;;23.58;67.36;95104.53;4979382;28;20332;-86
2021/06/22 05:58:08;;;;;;;4.47;2.00;;;;;;;23.69;67.65;95098.16;4996107;28;20195;-87
2021/06/22 06:00:35;;;;;;;5.80;2.00;;;;;;;23.71;67.71;95093.44;4993666;28;20219;-85
2021/06/22 06:03:02;;;;;;;5.07;2.42;;;;;;;23.72;67.10;95102.91;4989452;28;20211;-85
2021/06/22 06:05:28;;;;;;;4.78;2.15;;;;;;;23.59;66.41;95098.22;4984065;28;20294;-85
2021/06/22 06:07:55;;;;;;;4.57;2.22;;;;;;;23.58;67.58;95103.75;4978954;28;20208;-86
2021/06/22 06:10:23;;;;;;;6.03;2.13;;;;;;;23.62;66.54;95110.06;4997894;28;20192;-85
2021/06/22 06:12:50;;;;;;;3.05;2.00;;;;;;;23.69;67.02;95108.69;4997805;28;20252;-84
2021/06/22 06:15:19;;;;;;;5.70;1.98;;;;;;;23.82;67.52;95111.81;4998495;28;20223;-85
2021/06/22 06:17:46;;;;;;;3.92;2.00;;;;;;;23.76;66.76;95116.28;4991373;28;20686;-88
2021/06/22 06:20:15;;;;;;;3.90;1.95;;;;;;;23.63;68.18;95112.41;4979875;28;20226;-85
2021/06/22 06:22:43;;;;;;;3.65;2.55;;;;;;;23.71;68.28;95109.22;4979442;28;20295;-84
2021/06/22 06:25:11;;;;;;;2.70;1.88;;;;;;;23.72;67.95;95116.03;4989062;28;20231;-86
2021/06/22 06:27:44;;;;;;;2.90;1.73;;;;;;;23.81;68.48;95113.63;5012070;28;20210;-87
2021/06/22 06:30:15;;;;;;;5.78;1.90;;;;;;;23.68;69.62;95119.47;5017130;28;20275;-86
2021/06/22 06:32:43;;;;;;;3.60;1.73;;;;;;;23.66;69.35;95111.09;5018033;28;20207;-87
2021/06/22 06:35:10;;;;;;;4.47;1.98;;;;;;;23.73;68.25;95112.34;5005316;28;20235;-86
2021/06/22 06:37:37;;;;;;;4.95;1.45;;;;;;;23.75;65.68;95118.13;4998658;28;20218;-86
2021/06/22 06:40:04;;;;;;;3.17;1.73;;;;;;;23.79;66.42;95125.47;4999149;28;20200;-87
2021/06/22 06:42:31;;;;;;;4.03;1.98;;;;;;;23.82;66.17;95117.84;4993078;28;20231;-86
2021/06/22 06:44:57;;;;;;;4.22;1.60;;;;;;;23.88;65.46;95121.22;4992261;28;20229;-85
2021/06/22 06:47:24;;;;;;;3.35;1.60;;;;;;;24.08;65.44;95111.38;5014235;28;20208;-85
2021/06/22 06:49:52;;;;;;;5.70;1.70;;;;;;;24.17;65.81;95126.59;5012008;28;20717;-85
2021/06/22 06:52:19;;;;;;;2.58;1.60;;;;;;;24.21;64.49;95120.50;5012321;28;20225;-84
2021/06/22 06:54:46;;;;;;;2.67;1.60;;;;;;;24.26;64.97;95117.06;5003046;28;20586;-84
2021/06/22 06:57:12;;;;;;;3.50;1.85;;;;;;;24.34;64.93;95112.03;4995798;28;20231;-85
2021/06/22 06:59:39;;;;;;;1.98;1.60;;;;;;;24.35;63.81;95118.06;4997554;28;20210;-84
2021/06/22 07:02:06;;;;;;;3.55;1.80;;;;;;;24.23;62.44;95113.13;4996901;28;20223;-84
2021/06/22 07:04:33;;;;;;;3.05;1.60;;;;;;;24.19;64.33;95111.31;4997025;28;20239;-85
2021/06/22 07:07:00;;;;;;;3.75;2.00;;;;;;;24.29;64.97;95117.31;4996572;28;20223;-85
2021/06/22 07:09:27;;;;;;;2.20;1.52;;;;;;;24.36;64.89;95109.91;4996131;28;20199;-84
2021/06/22 07:11:56;;;;;;;3.20;1.95;;;;;;;24.35;63.31;95116.22;4997433;28;20214;-86
2021/06/22 07:14:22;;;;;;;4.32;2.30;;;;;;;24.45;63.90;95123.25;4996176;28;20211;-84
2021/06/22 07:16:52;;;;;;;2.33;1.92;;;;;;;24.50;64.66;95110.06;4995848;28;20203;-85
2021/06/22 07:19:19;;;;;;;3.17;1.80;;;;;;;24.63;64.63;95112.06;4996420;28;20804;-87
2021/06/22 07:21:46;;;;;;;10.40;2.40;;;;;;;24.48;64.93;95121.91;5003769;28;20223;-84
2021/06/22 07:24:15;;;;;;;15.90;2.90;;;;;;;24.43;65.13;95117.50;5009254;28;20203;-85
2021/06/22 07:26:42;;;;;;;6.20;2.10;;;;;;;24.32;63.40;95116.78;5008660;28;20261;-84
2021/06/22 07:29:08;;;;;;;4.10;1.80;;;;;;;24.32;62.87;95113.34;5006302;28;20199;-86
2021/06/22 07:31:35;;;;;;;2.15;1.73;;;;;;;24.22;64.78;95111.56;5006262;28;20242;-87
2021/06/22 07:34:01;;;;;;;3.60;2.00;;;;;;;24.27;64.45;95111.53;5009443;28;20268;-86
2021/06/22 07:36:28;;;;;;;2.50;1.67;;;;;;;24.17;63.30;95103.69;4989799;28;20228;-87
2021/06/22 07:38:54;;;;;;;3.50;1.60;;;;;;;24.21;64.27;95106.56;4989039;28;20196;-88
2021/06/22 07:41:35;;;;;;;3.72;1.85;;;;;;;24.22;64.77;95102.88;4987625;28;20223;-88
2021/06/22 07:44:01;;;;;;;5.22;2.08;;;;;;;24.23;63.92;95099.19;4988827;28;20288;-86
2021/06/22 07:46:28;;;;;;;5.13;1.50;;;;;;;24.24;62.05;95098.97;4989196;28;20223;-87
2021/06/22 07:48:54;;;;;;;5.53;1.88;;;;;;;24.21;61.71;95088.94;4989060;28;20218;-88
2021/06/22 07:51:25;;;;;;;3.75;1.67;;;;;;;24.32;61.78;95087.03;4987796;28;20193;-88
2021/06/22 07:53:52;;;;;;;2.58;1.60;;;;;;;24.47;60.05;95089.56;4994333;28;20204;-85
2021/06/22 07:56:18;;;;;;;2.65;1.55;;;;;;;24.52;60.88;95088.72;5007540;28;20255;-85
2021/06/22 07:58:50;;;;;;;2.05;1.67;;;;;;;24.60;61.17;95082.88;5008180;28;20267;-86
2021/06/22 08:01:16;;;;;;;2.85;1.75;;;;;;;24.72;60.57;95085.94;5008433;28;20246;-85
2021/06/22 08:06:31;;;;;;;3.17;1.80;;;;;;;24.73;61.36;95085.66;5004976;28;20302;-87
2021/06/22 08:11:44;;;;;;;4.75;1.95;;;;;;;24.71;59.63;95079.09;5003279;28;20196;-87
2021/06/22 08:14:12;;;;;;;3.60;1.65;;;;;;;24.47;58.24;95071.13;5006254;28;20208;-85
2021/06/22 08:16:38;;;;;;;3.28;2.08;;;;;;;24.48;58.71;95077.19;5005151;28;20272;-86
2021/06/22 08:19:05;;;;;;;4.03;1.90;;;;;;;24.53;60.77;95071.88;5008611;28;20211;-87
2021/06/22 08:21:34;;;;;;;4.00;1.88;;;;;;;24.71;59.92;95066.72;5007842;28;20220;-85
2021/06/22 08:24:01;;;;;;;2.38;1.73;;;;;;;24.73;57.93;95067.22;5008011;28;20451;-86
2021/06/22 08:26:28;;;;;;;3.95;1.80;;;;;;;25.02;58.70;95074.31;5008033;28;20287;-87
2021/06/22 08:29:01;;;;;;;5.53;2.03;;;;;;;25.13;59.22;95062.63;5006309;28;20203;-87
2021/06/22 08:31:29;;;;;;;3.35;1.60;;;;;;;25.25;58.71;95070.91;5007343;28;20195;-87
2021/06/22 08:33:55;;;;;;;2.85;1.30;;;;;;;25.34;57.23;95079.00;5007329;28;20733;-86
2021/06/22 08:36:24;;;;;;;3.95;1.70;;;;;;;25.39;56.32;95071.81;5006203;28;20282;-85
2021/06/22 08:38:51;;;;;;;3.28;1.80;;;;;;;25.28;55.44;95078.25;5006637;28;20563;-84
2021/06/22 08:41:21;;;;;;;3.22;1.70;;;;;;;25.20;56.05;95073.63;5006733;28;20230;-85
2021/06/22 08:43:50;;;;;;;2.53;1.65;;;;;;;25.40;56.20;95070.72;5006154;28;20271;-86
2021/06/22 08:46:16;;;;;;;3.28;1.40;;;;;;;25.44;53.68;95068.31;5005145;28;20238;-86
2021/06/22 08:48:47;;;;;;;2.65;1.55;;;;;;;25.57;52.75;95075.56;5005707;28;20213;-87
2021/06/22 08:51:15;;;;;;;4.95;1.58;;;;;;;25.61;54.29;95076.53;5006621;28;20271;-85
2021/06/22 08:53:42;;;;;;;3.20;1.50;;;;;;;25.58;53.74;95066.59;5006121;28;20208;-86
2021/06/22 08:56:08;;;;;;;2.22;1.48;;;;;;;25.59;54.07;95067.38;5006319;28;20242;-86
2021/06/22 08:58:35;;;;;;;3.53;1.65;;;;;;;25.75;54.11;95068.75;5005722;28;20199;-87
2021/06/22 09:01:01;;;;;;;2.40;1.60;;;;;;;25.90;52.17;95073.81;5005388;28;20207;-86
2021/06/22 09:03:28;;;;;;;4.97;1.67;;;;;;;26.09;54.63;95074.59;5008609;28;20199;-87
2021/06/22 09:05:59;;;;;;;5.25;1.63;;;;;;;26.07;50.91;95078.59;5011043;28;20299;-86
2021/06/22 09:08:28;;;;;;;4.20;1.70;;;;;;;25.97;51.91;95076.13;5009504;28;20202;-86
2021/06/22 09:11:03;;;;;;;4.38;1.75;;;;;;;25.97;51.85;95074.25;5008799;28;20195;-88
2021/06/22 09:13:30;;;;;;;4.35;1.80;;;;;;;25.80;51.75;95079.22;5010927;28;20222;-86
2021/06/22 09:15:56;;;;;;;3.17;1.50;;;;;;;25.77;52.58;95079.81;5030180;28;20249;-87
2021/06/22 09:18:28;;;;;;;4.05;1.50;;;;;;;25.79;52.40;95081.06;5028903;28;20258;-88
2021/06/22 09:20:57;;;;;;;5.93;1.50;;;;;;;25.74;52.21;95080.38;5027556;28;20206;-86
2021/06/22 09:23:27;;;;;;;3.53;1.60;;;;;;;25.83;51.51;95076.03;5027104;28;20256;-85
2021/06/22 09:25:56;;;;;;;3.65;1.60;;;;;;;25.94;52.21;95084.59;5025626;28;20226;-86
2021/06/22 09:28:24;;;;;;;5.90;2.08;;;;;;;26.01;51.59;95074.44;5022711;28;20234;-83
2021/06/22 09:30:54;;;;;;;2.53;1.70;;;;;;;26.10;52.21;95075.38;5023042;28;20203;-87
2021/06/22 09:33:39;;;;;;;3.42;1.60;;;;;;;26.33;50.71;95074.53;5025225;28;20199;-86
2021/06/22 09:36:12;;;;;;;4.20;1.75;;;;;;;26.49;49.63;95081.16;5013863;28;20227;-85
2021/06/22 09:38:42;;;;;;;2.20;1.70;;;;;;;26.63;49.01;95067.19;5024493;28;20205;-84
2021/06/22 09:41:14;;;;;;;3.50;1.77;;;;;;;26.60;49.62;95068.53;5023743;28;20461;-87
2021/06/22 09:43:45;;;;;;;2.92;1.30;;;;;;;26.70;49.46;95072.88;5022415;28;20199;-87
2021/06/22 09:46:13;;;;;;;2.67;1.40;;;;;;;26.88;49.48;95072.03;5021175;28;20235;-85
2021/06/22 09:48:45;;;;;;;3.05;1.90;;;;;;;27.07;49.35;95072.78;5023571;28;20282;-87
2021/06/22 09:51:11;;;;;;;2.17;1.60;;;;;;;26.91;49.38;95066.19;5023713;28;20206;-86
2021/06/22 09:53:39;;;;;;;2.55;1.55;;;;;;;26.51;50.13;95061.59;5022207;28;20233;-86
2021/06/22 09:56:18;;;;;;;3.92;1.90;;;;;;;26.73;50.28;95070.47;5004212;28;20239;-86
2021/06/22 09:58:45;;;;;;;4.30;1.70;;;;;;;26.82;50.83;95071.34;5005844;28;20211;-85
2021/06/22 10:01:36;;;;;;;4.65;1.65;;;;;;;27.03;50.46;95063.88;5005787;28;20203;-85
2021/06/22 10:04:17;;;;;;;3.03;1.65;;;;;;;27.14;49.20;95062.59;5005905;28;20203;-85
2021/06/22 10:06:49;;;;;;;4.13;1.80;;;;;;;27.36;48.18;95064.53;5004793;28;20239;-85
2021/06/22 10:09:20;;;;;;;4.18;1.90;;;;;;;27.62;48.48;95056.91;5005772;28;20210;-84
2021/06/22 10:11:47;;;;;;;3.03;1.50;;;;;;;27.60;49.51;95063.56;5004606;28;20282;-86
2021/06/22 10:14:25;;;;;;;3.40;1.80;;;;;;;27.53;50.07;95066.59;5005637;28;20203;-87
2021/06/22 10:16:52;;;;;;;4.10;1.80;;;;;;;27.58;47.30;95063.09;5005697;28;20254;-85
2021/06/22 10:19:21;;;;;;;2.13;1.70;;;;;;;27.66;47.16;95057.91;5005676;28;20207;-84
2021/06/22 10:21:48;;;;;;;6.07;1.48;;;;;;;27.57;47.88;95067.59;5005477;28;20226;-85
2021/06/22 10:24:18;;;;;;;2.95;1.98;;;;;;;27.39;47.10;95060.53;5003653;28;20258;-84
2021/06/22 10:26:45;;;;;;;2.08;1.50;;;;;;;27.54;48.24;95065.50;5004137;28;20203;-85
2021/06/22 10:29:12;;;;;;;2.55;1.83;;;;;;;27.58;47.45;95078.94;5005389;28;20203;-86
2021/06/22 10:31:38;;;;;;;1.83;1.67;;;;;;;27.87;47.26;95074.13;5008398;28;20214;-86
2021/06/22 10:34:05;;;;;;;3.08;1.92;;;;;;;28.08;48.17;95069.94;5008966;28;20223;-87
2021/06/22 10:36:35;;;;;;;5.22;1.77;;;;;;;28.37;46.26;95074.06;5008726;28;20223;-86
2021/06/22 10:39:05;;;;;;;2.65;1.90;;;;;;;28.18;45.93;95061.75;5009020;28;20208;-85
2021/06/22 10:41:41;;;;;;;7.30;2.10;;;;;;;28.09;46.56;95063.56;5008147;28;20204;-87
2021/06/22 10:44:10;;;;;;;2.35;1.60;;;;;;;28.12;45.80;95075.41;5008012;28;20298;-86
2021/06/22 10:46:40;;;;;;;3.33;1.55;;;;;;;28.20;46.11;95074.72;5008727;28;20219;-86
2021/06/22 10:49:19;;;;;;;4.50;1.80;;;;;;;28.45;45.93;95074.13;5007916;28;20271;-86
2021/06/22 10:51:47;;;;;;;8.57;2.20;;;;;;;28.79;46.50;95073.56;5006997;28;20262;-88
2021/06/22 10:54:47;;;;;;;3.85;1.80;;;;;;;28.93;45.98;95078.78;5005382;28;20230;-87
2021/06/22 10:57:15;;;;;;;2.30;1.70;;;;;;;28.80;45.48;95079.66;5006538;28;20609;-87
2021/06/22 11:00:01;;;;;;;2.92;1.63;;;;;;;28.79;45.95;95080.72;5006181;28;20207;-87
2021/06/22 11:03:01;;;;;;;3.55;1.80;;;;;;;28.76;45.16;95081.31;5006765;28;20278;-88
2021/06/22 11:05:28;;;;;;;4.63;1.65;;;;;;;28.37;45.53;95082.78;5003573;28;20817;-86
2021/06/22 11:08:28;;;;;;;4.82;1.52;;;;;;;28.01;46.92;95080.16;4993523;28;20200;-87
2021/06/22 11:11:16;;;;;;;2.05;1.77;;;;;;;27.73;47.32;95078.63;5004682;28;20200;-86
2021/06/22 11:13:47;;;;;;;2.60;1.50;;;;;;;27.77;47.19;95084.91;5005287;28;20196;-88
2021/06/22 11:16:25;;;;;;;3.22;1.92;;;;;;;28.06;46.30;95079.25;4999800;28;20292;-88
2021/06/22 11:19:16;;;;;;;3.70;1.58;;;;;;;28.43;45.86;95086.13;4997522;28;20280;-86
2021/06/22 11:21:54;;;;;;;4.22;1.58;;;;;;;28.76;46.24;95097.22;4973705;28;20211;-87
2021/06/22 11:24:23;;;;;;;2.28;1.48;;;;;;;28.88;45.65;95090.31;5004114;28;20210;-88
2021/06/22 11:27:06;;;;;;;1.98;1.40;;;;;;;28.91;44.91;95088.13;4995045;28;20272;-87
2021/06/22 11:29:49;;;;;;;2.17;1.60;;;;;;;29.10;45.52;95101.94;4982939;28;20650;-87
2021/06/22 11:32:39;;;;;;;2.17;1.80;;;;;;;29.02;44.06;95097.41;4984831;28;20204;-85
2021/06/22 11:35:13;;;;;;;2.17;1.80;;;;;;;29.07;43.63;95098.03;4991834;28;20868;-88
2021/06/22 11:37:41;;;;;;;2.22;1.55;;;;;;;29.12;43.44;95094.47;5004989;28;20211;-88
2021/06/22 11:40:11;;;;;;;2.17;1.55;;;;;;;29.05;44.29;95094.16;5004434;28;20668;-86
2021/06/22 11:42:39;;;;;;;2.90;1.92;;;;;;;29.12;43.72;95089.94;5004674;28;20227;-88
2021/06/22 11:45:22;;;;;;;2.22;1.60;;;;;;;29.04;46.08;95082.75;5004295;28;20219;-87
2021/06/22 11:47:51;;;;;;;2.95;1.58;;;;;;;28.71;44.48;95092.81;5004664;28;20218;-86